createdAt,value
2018-03-30T06:01:27.846Z,4.10
2018-03-30T06:03:56.193Z,4.20
2018-03-30T06:06:24.820Z,4.20
2018-03-30T06:08:52.962Z,4.20
2018-03-30T06:11:20.518Z,4.30
2018-03-30T06:13:48.093Z,4.30
2018-03-30T06:16:15.660Z,4.20
2018-03-30T06:18:43.246Z,4.20
2018-03-30T06:21:10.821Z,4.40
2018-03-30T06:23:39.149Z,4.90
2018-03-30T06:26:07.360Z,4.90
2018-03-30T06:28:35.704Z,5.40
2018-03-30T06:31:03.282Z,5.40
2018-03-30T06:33:30.843Z,5.70
2018-03-30T06:35:58.442Z,6.00
2018-03-30T06:38:26.026Z,6.30
2018-03-30T06:40:53.613Z,6.40
2018-03-30T06:43:21.169Z,6.40
2018-03-30T06:45:48.760Z,6.50
2018-03-30T06:48:16.327Z,6.50
2018-03-30T06:50:44.641Z,6.60
2018-03-30T06:53:12.213Z,6.60
2018-03-30T06:55:39.759Z,6.50
2018-03-30T06:58:08.209Z,6.60
2018-03-30T07:00:35.741Z,6.80
2018-03-30T07:03:04.016Z,6.80
2018-03-30T07:05:31.637Z,6.70
2018-03-30T07:08:00.112Z,6.50
2018-03-30T07:10:27.679Z,6.40
2018-03-30T07:12:55.308Z,6.40
2018-03-30T07:15:23.646Z,6.50
2018-03-30T07:17:51.225Z,6.50
2018-03-30T07:20:18.802Z,6.70
2018-03-30T07:22:47.115Z,6.70
2018-03-30T07:25:17.006Z,6.70
2018-03-30T07:27:45.677Z,6.70
2018-03-30T07:30:14.093Z,6.80
2018-03-30T07:32:43.321Z,6.70
2018-03-30T07:35:12.816Z,6.90
2018-03-30T07:37:40.429Z,6.90
2018-03-30T07:40:08.852Z,7.10
2018-03-30T07:42:38.304Z,7.20
2018-03-30T07:45:06.147Z,7.40
2018-03-30T07:47:34.630Z,7.60
2018-03-30T07:50:02.332Z,7.60
2018-03-30T07:52:30.938Z,7.60
2018-03-30T07:54:58.598Z,7.70
2018-03-30T07:57:26.187Z,7.70
2018-03-30T07:59:57.388Z,7.80
2018-03-30T08:02:27.133Z,7.70
2018-03-30T08:04:57.507Z,7.80
2018-03-30T08:07:25.968Z,8.10
2018-03-30T08:09:53.889Z,8.20
2018-03-30T08:12:26.747Z,8.30
2018-03-30T08:14:57.715Z,8.40
2018-03-30T08:17:25.357Z,8.60
2018-03-30T08:19:53.765Z,8.60
2018-03-30T08:22:21.964Z,8.70
2018-03-30T08:24:50.403Z,8.70
2018-03-30T08:27:18.017Z,8.80
2018-03-30T08:29:51.657Z,8.80
2018-03-30T08:32:20.138Z,8.90
2018-03-30T08:34:47.896Z,8.90
2018-03-30T08:37:16.371Z,9.00
2018-03-30T08:39:45.894Z,9.30
2018-03-30T08:42:15.050Z,9.30
2018-03-30T08:44:46.769Z,9.40
2018-03-30T08:47:14.342Z,9.60
2018-03-30T08:49:42.945Z,9.60
2018-03-30T08:52:12.025Z,9.70
2018-03-30T08:54:41.180Z,9.70
2018-03-30T08:57:09.228Z,10.10
2018-03-30T08:59:36.808Z,10.20
2018-03-30T09:02:08.166Z,10.10
2018-03-30T09:04:36.038Z,10.10
2018-03-30T09:07:04.593Z,10.30
2018-03-30T09:09:32.944Z,10.50
2018-03-30T09:12:00.519Z,10.50
2018-03-30T09:14:29.082Z,10.40
2018-03-30T09:16:56.654Z,10.40
2018-03-30T09:19:25.725Z,10.50
2018-03-30T09:21:53.407Z,10.70
2018-03-30T09:24:21.615Z,10.80
2018-03-30T09:26:50.334Z,10.80
2018-03-30T09:29:17.947Z,10.90
2018-03-30T09:31:45.541Z,11.10
2018-03-30T09:34:13.723Z,11.20
2018-03-30T09:36:42.089Z,11.20
2018-03-30T09:39:11.864Z,11.20
2018-03-30T09:41:40.068Z,11.10
2018-03-30T09:44:09.713Z,11.30
2018-03-30T09:46:37.279Z,11.30
2018-03-30T09:49:04.889Z,11.30
2018-03-30T09:51:33.682Z,11.40
2018-03-30T09:54:01.263Z,11.40
2018-03-30T09:56:31.231Z,11.60
2018-03-30T09:58:59.567Z,11.60
2018-03-30T10:01:27.877Z,11.60
2018-03-30T10:03:55.488Z,11.70
2018-03-30T10:06:25.316Z,11.80
2018-03-30T10:08:55.193Z,11.80
2018-03-30T10:11:23.192Z,11.80
2018-03-30T10:13:50.813Z,12.00
2018-03-30T10:16:19.304Z,12.30
2018-03-30T10:18:47.614Z,12.40
2018-03-30T10:21:16.220Z,12.40
2018-03-30T10:23:43.775Z,12.50
2018-03-30T10:26:11.336Z,12.60
2018-03-30T10:28:39.590Z,12.60
2018-03-30T10:31:08.785Z,12.70
2018-03-30T10:33:36.466Z,12.80
2018-03-30T10:36:05.146Z,13.00
2018-03-30T10:38:34.414Z,13.20
2018-03-30T10:41:02.132Z,13.30
2018-03-30T10:43:31.683Z,13.20
2018-03-30T10:45:59.289Z,13.30
2018-03-30T10:48:28.189Z,13.40
2018-03-30T10:50:55.851Z,13.40
2018-03-30T10:53:24.258Z,13.40
2018-03-30T10:55:52.665Z,13.60
2018-03-30T10:58:20.210Z,13.60
2018-03-30T11:00:47.799Z,13.50
2018-03-30T11:03:15.561Z,13.60
2018-03-30T11:05:43.201Z,13.70
2018-03-30T11:08:11.616Z,13.80
2018-03-30T11:10:42.472Z,13.90
2018-03-30T11:13:10.045Z,14.10
2018-03-30T11:15:38.328Z,14.20
